Mirabile, Missouri
Current Conditions -  °F | °C
As of 1:15 AM on Monday 24 Nov 2014 (Local Time) from KGPH Reporting Station
Overcast Overcast  
Wind Chill: 31°   Ceiling: 3600
Heat Index: 41°   Visibility: 10mi
Dew Point: 30°   Wind: 24mph
Humidity: 65%   Direction: 300°WNW
Pressure: 29.48"   Gusts: 35mph
Location:  39.5693°N, 94.0956°W
Report Text: KGPH 240715Z AUTO 30021G30KT 10SM OVC036 05/M01 A2948 RMK AO2
Loading
Personal Weather Stations






























Interactive Weather Map New forecast layout! Learn more

10-Day Weather Forecast

Advertisements
Track Severe Weather on mobile